Time;durP1;ratioP1;P1;durP2;ratioP2;P2;SDS_P1;SDS_P2;PMS_P1;PMS_P2;Temp;Humidity;BMP_temperature;BMP_pressure;BME280_temperature;BME280_humidity;BME280_pressure;Samples;Min_cycle;Max_cycle;Signal;HPM_P1;HPM_P2
2021/07/02 00:00:37;;;;;;;10.15;9.15;;;;;;;19.28;89.63;98556.31;1688842;83;20959;-63
2021/07/02 00:03:04;;;;;;;11.48;9.03;;;;;;;19.25;89.77;98551.80;1685048;84;21005;-64
2021/07/02 00:05:30;;;;;;;8.85;8.15;;;;;;;19.21;90.00;98549.92;1687568;84;21481;-63
2021/07/02 00:07:57;;;;;;;10.75;9.75;;;;;;;19.18;90.21;98544.92;1640361;86;20975;-64
2021/07/02 00:10:24;;;;;;;10.60;9.60;;;;;;;19.18;90.49;98549.39;1645026;86;21158;-64
2021/07/02 00:12:51;;;;;;;10.30;9.25;;;;;;;19.13;90.70;98543.70;1686510;83;21378;-64
2021/07/02 00:15:17;;;;;;;9.28;8.38;;;;;;;19.10;90.91;98543.49;1638075;86;21074;-64
2021/07/02 00:17:44;;;;;;;8.50;7.80;;;;;;;19.07;91.18;98541.61;1647598;86;22555;-64
2021/07/02 00:20:12;;;;;;;12.73;9.73;;;;;;;19.02;91.44;98536.75;1633938;86;21418;-64
2021/07/02 00:22:38;;;;;;;10.50;9.63;;;;;;;19.00;91.72;98542.64;1651069;85;21143;-64
2021/07/02 00:25:07;;;;;;;9.83;8.90;;;;;;;18.98;91.95;98541.98;1661712;86;21006;-64
2021/07/02 00:27:33;;;;;;;9.45;8.45;;;;;;;18.96;92.14;98534.70;1644192;86;20986;-64
2021/07/02 00:29:59;;;;;;;11.10;9.25;;;;;;;18.93;92.32;98543.71;1689096;84;20973;-64
2021/07/02 00:32:28;;;;;;;9.90;8.95;;;;;;;18.91;92.47;98543.02;1692031;84;21128;-64
2021/07/02 00:34:54;;;;;;;10.78;9.68;;;;;;;18.90;92.58;98540.52;1683748;84;21140;-64
2021/07/02 00:37:21;;;;;;;11.35;9.48;;;;;;;18.88;92.64;98547.72;1636767;86;21576;-64
2021/07/02 00:39:48;;;;;;;9.43;8.60;;;;;;;18.86;92.73;98550.49;1681269;84;21073;-64
2021/07/02 00:42:14;;;;;;;9.75;8.78;;;;;;;18.84;92.85;98551.59;1643728;86;21101;-64
2021/07/02 00:44:47;;;;;;;10.58;9.68;;;;;;;18.82;92.95;98555.68;1686225;84;21179;-63
2021/07/02 00:47:16;;;;;;;11.12;10.05;;;;;;;18.79;93.08;98554.63;1684773;84;21206;-63
2021/07/02 00:49:42;;;;;;;10.10;9.10;;;;;;;18.76;93.29;98550.98;1638843;86;20997;-64
2021/07/02 00:52:12;;;;;;;8.90;7.97;;;;;;;18.76;93.44;98558.89;1688695;84;21017;-64
2021/07/02 00:54:40;;;;;;;8.78;7.95;;;;;;;18.76;93.52;98556.25;1686276;83;21462;-64
2021/07/02 00:57:09;;;;;;;9.28;8.10;;;;;;;18.78;93.56;98561.39;1686027;83;21025;-64
2021/07/02 00:59:37;;;;;;;9.20;8.40;;;;;;;18.79;93.76;98572.24;1617747;86;21832;-65
2021/07/02 01:02:04;;;;;;;9.00;7.95;;;;;;;18.80;93.88;98558.94;1681255;83;21581;-64
2021/07/02 01:04:32;;;;;;;9.38;8.43;;;;;;;18.82;93.89;98556.16;1680755;84;21093;-64
2021/07/02 01:06:59;;;;;;;9.10;8.25;;;;;;;18.83;93.81;98552.08;1645973;86;21598;-64
2021/07/02 01:09:27;;;;;;;9.15;8.18;;;;;;;18.85;93.73;98549.31;1646386;86;21082;-63
2021/07/02 01:11:55;;;;;;;10.55;9.65;;;;;;;18.85;93.78;98553.27;1633825;86;21898;-63
2021/07/02 01:14:22;;;;;;;10.15;8.68;;;;;;;18.84;93.87;98555.06;1685631;84;21534;-64
2021/07/02 01:16:49;;;;;;;9.05;8.23;;;;;;;18.87;93.95;98559.23;1684961;84;20986;-64
2021/07/02 01:19:16;;;;;;;11.53;7.60;;;;;;;18.91;93.88;98553.55;1685262;84;21470;-64
2021/07/02 01:21:44;;;;;;;9.45;7.72;;;;;;;18.96;93.84;98554.95;1680805;83;20958;-63
2021/07/02 01:24:13;;;;;;;8.90;8.13;;;;;;;18.98;93.74;98560.43;1684106;84;21082;-63
2021/07/02 01:26:40;;;;;;;8.43;7.62;;;;;;;18.99;93.61;98547.56;1682548;84;22576;-63
2021/07/02 01:29:08;;;;;;;7.83;6.55;;;;;;;19.01;93.36;98549.58;1687585;83;21075;-64
2021/07/02 01:31:35;;;;;;;8.13;6.90;;;;;;;19.02;93.28;98547.30;1688005;83;21131;-64
2021/07/02 01:34:01;;;;;;;8.25;7.53;;;;;;;19.02;93.54;98542.02;1682487;83;21537;-64
2021/07/02 01:36:28;;;;;;;8.28;7.30;;;;;;;19.04;93.40;98547.16;1689122;83;21887;-64
2021/07/02 01:38:57;;;;;;;10.30;6.58;;;;;;;19.06;93.16;98543.91;1684873;84;21105;-64
2021/07/02 01:41:25;;;;;;;6.83;6.08;;;;;;;19.07;92.98;98539.81;1685509;83;21637;-64
2021/07/02 01:43:53;;;;;;;7.15;6.25;;;;;;;19.09;92.92;98540.51;1689181;83;21136;-63
2021/07/02 01:46:20;;;;;;;5.95;5.10;;;;;;;19.11;92.70;98550.43;1682646;83;21533;-64
2021/07/02 01:48:49;;;;;;;6.78;6.05;;;;;;;19.12;92.48;98552.58;1685068;83;21091;-64
2021/07/02 01:51:17;;;;;;;5.45;4.95;;;;;;;19.14;92.31;98567.77;1685002;84;21525;-63
2021/07/02 01:53:45;;;;;;;14.55;6.28;;;;;;;19.18;91.48;98569.16;1631189;86;21116;-63
2021/07/02 01:56:12;;;;;;;5.35;4.85;;;;;;;19.17;91.00;98584.14;1683293;84;21022;-64
2021/07/02 01:58:40;;;;;;;5.83;5.30;;;;;;;19.18;90.98;98581.03;1643883;85;21542;-64
2021/07/02 02:01:11;;;;;;;5.78;5.28;;;;;;;19.19;90.75;98584.81;1683251;84;21159;-64
2021/07/02 02:03:40;;;;;;;5.92;5.33;;;;;;;19.19;90.35;98587.94;1685347;84;20970;-63
2021/07/02 02:06:07;;;;;;;7.20;5.05;;;;;;;19.17;90.24;98594.69;1689743;83;21022;-63
2021/07/02 02:08:34;;;;;;;7.35;5.20;;;;;;;19.17;90.14;98596.50;1647714;85;21046;-64
2021/07/02 02:11:01;;;;;;;7.70;5.10;;;;;;;19.16;89.99;98602.25;1690375;84;21707;-64
2021/07/02 02:13:30;;;;;;;5.70;5.10;;;;;;;19.17;89.94;98606.55;1684084;84;21236;-64
2021/07/02 02:15:58;;;;;;;5.20;4.70;;;;;;;19.18;89.76;98612.66;1685885;83;21002;-63
2021/07/02 02:18:25;;;;;;;5.05;4.55;;;;;;;19.20;89.42;98608.88;1682310;85;21439;-63
2021/07/02 02:20:52;;;;;;;5.92;4.17;;;;;;;19.20;89.39;98610.20;1682074;84;21572;-63
2021/07/02 02:23:19;;;;;;;5.30;4.78;;;;;;;19.19;89.35;98607.70;1682333;83;20986;-63
2021/07/02 02:25:46;;;;;;;7.35;5.05;;;;;;;19.19;89.36;98609.02;1683772;83;21597;-63
2021/07/02 02:28:13;;;;;;;4.85;4.40;;;;;;;19.20;89.07;98610.20;1681899;84;21621;-63
2021/07/02 02:30:41;;;;;;;5.35;4.70;;;;;;;19.23;88.90;98608.61;1683917;83;21009;-63
2021/07/02 02:33:11;;;;;;;7.08;4.45;;;;;;;19.28;88.89;98609.52;1685827;83;21457;-64
2021/07/02 02:35:37;;;;;;;5.55;4.53;;;;;;;19.33;88.69;98608.63;1689694;83;21001;-64
2021/07/02 02:38:04;;;;;;;5.30;4.53;;;;;;;19.36;88.49;98600.44;1677540;84;21161;-64
2021/07/02 02:40:32;;;;;;;8.08;4.70;;;;;;;19.41;88.27;98606.10;1685547;83;21636;-64
2021/07/02 02:42:59;;;;;;;5.78;4.17;;;;;;;19.45;88.14;98601.39;1684597;83;21155;-64
2021/07/02 02:45:27;;;;;;;8.43;5.03;;;;;;;19.51;88.01;98604.34;1685458;84;21072;-64
2021/07/02 02:47:55;;;;;;;11.73;5.45;;;;;;;19.57;87.91;98597.67;1684767;83;21112;-64
2021/07/02 02:50:22;;;;;;;6.55;5.10;;;;;;;19.63;87.61;98597.57;1682445;84;22256;-64
2021/07/02 02:52:49;;;;;;;5.83;4.65;;;;;;;19.69;87.08;98600.97;1686220;84;21045;-64
2021/07/02 02:55:17;;;;;;;6.78;5.00;;;;;;;19.72;86.66;98605.97;1648396;86;20989;-64
2021/07/02 02:57:43;;;;;;;6.90;5.40;;;;;;;19.74;86.37;98604.02;1686625;84;21430;-63
2021/07/02 03:00:13;;;;;;;8.28;6.28;;;;;;;19.77;86.24;98607.22;1683737;84;21069;-64
2021/07/02 03:02:41;;;;;;;10.13;6.50;;;;;;;19.81;85.94;98606.42;1689348;84;21833;-64
2021/07/02 03:05:09;;;;;;;5.72;5.12;;;;;;;19.82;85.65;98609.41;1649901;86;21045;-64
2021/07/02 03:07:41;;;;;;;5.65;5.12;;;;;;;19.85;85.53;98610.44;1685607;82;21010;-64
2021/07/02 03:10:10;;;;;;;11.40;5.97;;;;;;;19.85;85.52;98615.72;1687753;83;21084;-64
2021/07/02 03:12:36;;;;;;;8.70;6.72;;;;;;;19.87;85.50;98623.84;1689638;83;21068;-64
2021/07/02 03:15:06;;;;;;;8.65;7.72;;;;;;;19.90;85.42;98627.52;1683948;83;21151;-64
2021/07/02 03:17:32;;;;;;;7.70;5.83;;;;;;;19.93;85.14;98632.52;1691626;83;20949;-64
2021/07/02 03:19:59;;;;;;;8.08;6.97;;;;;;;19.95;84.96;98635.02;1686891;83;21017;-64
2021/07/02 03:22:27;;;;;;;7.78;6.97;;;;;;;19.98;84.88;98639.18;1692046;83;21061;-64
2021/07/02 03:24:54;;;;;;;7.62;6.70;;;;;;;20.00;84.75;98638.03;1706449;83;20954;-64
2021/07/02 03:27:20;;;;;;;13.62;8.38;;;;;;;20.03;84.58;98639.56;1686061;84;21222;-63
2021/07/02 03:29:47;;;;;;;8.90;6.50;;;;;;;20.06;84.37;98634.83;1685291;84;21489;-65
2021/07/02 03:32:14;;;;;;;10.53;7.62;;;;;;;20.12;84.09;98638.72;1641658;86;21033;-63
2021/07/02 03:34:47;;;;;;;17.07;11.08;;;;;;;20.17;83.93;98635.16;1684916;84;21128;-63
2021/07/02 03:37:15;;;;;;;13.10;10.15;;;;;;;20.21;83.87;98640.47;1665638;84;21477;-64
2021/07/02 03:39:42;;;;;;;10.30;7.08;;;;;;;20.25;83.83;98633.94;1623868;86;21129;-64
2021/07/02 03:42:09;;;;;;;8.80;6.10;;;;;;;20.30;83.67;98632.53;1644059;86;20978;-64
2021/07/02 03:44:35;;;;;;;7.60;6.33;;;;;;;20.36;83.07;98635.09;1683793;84;21073;-64
2021/07/02 03:47:02;;;;;;;7.75;7.05;;;;;;;20.39;82.76;98632.65;1683179;84;20982;-64
2021/07/02 03:49:29;;;;;;;8.88;7.53;;;;;;;20.41;82.59;98639.94;1685132;83;20962;-64
2021/07/02 03:51:56;;;;;;;8.88;7.97;;;;;;;20.43;82.54;98638.83;1661590;86;21068;-64
2021/07/02 03:54:23;;;;;;;8.88;7.62;;;;;;;20.48;82.47;98627.34;1681217;83;20986;-64
2021/07/02 03:59:42;;;;;;;7.80;7.15;;;;;;;20.70;81.74;98626.11;1681795;85;21107;-64
2021/07/02 04:02:10;;;;;;;8.13;7.53;;;;;;;20.79;81.03;98617.28;1687783;85;21014;-64
2021/07/02 04:04:36;;;;;;;8.68;7.78;;;;;;;20.82;80.62;98616.16;1683139;84;21113;-64
2021/07/02 04:07:04;;;;;;;9.78;7.65;;;;;;;20.85;80.27;98614.05;1682632;84;21089;-65
2021/07/02 04:09:31;;;;;;;10.38;7.72;;;;;;;20.88;80.08;98619.05;1686905;84;21029;-65
2021/07/02 04:11:59;;;;;;;11.48;7.83;;;;;;;20.92;80.16;98621.73;1639175;85;21100;-62
2021/07/02 04:14:28;;;;;;;7.62;6.92;;;;;;;21.01;79.74;98628.41;1687598;83;21963;-64
2021/07/02 04:16:57;;;;;;;9.35;7.47;;;;;;;21.07;79.19;98634.43;1636961;86;21113;-65
2021/07/02 04:19:23;;;;;;;9.63;7.53;;;;;;;21.14;79.17;98634.18;1683201;83;21199;-64
2021/07/02 04:21:50;;;;;;;8.25;7.17;;;;;;;21.27;78.70;98638.63;1641277;86;21605;-64
2021/07/02 04:24:17;;;;;;;15.55;9.43;;;;;;;21.49;78.26;98639.48;1685904;83;21093;-64
2021/07/02 04:26:44;;;;;;;15.72;8.58;;;;;;;21.76;77.38;98635.91;1690388;83;21109;-64
2021/07/02 04:29:10;;;;;;;7.97;7.28;;;;;;;22.08;76.58;98631.34;1683854;84;21422;-64
2021/07/02 04:31:36;;;;;;;18.02;8.95;;;;;;;22.51;74.95;98632.22;1686744;83;21028;-64
2021/07/02 04:34:03;;;;;;;10.68;8.85;;;;;;;22.88;73.27;98634.52;1687052;83;21104;-63
2021/07/02 04:36:31;;;;;;;11.75;8.88;;;;;;;23.18;72.15;98634.44;1633168;86;21010;-64
2021/07/02 04:38:57;;;;;;;10.70;7.62;;;;;;;23.42;70.41;98630.45;1684046;84;21184;-64
2021/07/02 04:41:24;;;;;;;8.73;8.03;;;;;;;23.48;69.64;98629.80;1686479;83;21135;-64
2021/07/02 04:43:51;;;;;;;11.20;7.78;;;;;;;23.53;68.83;98628.02;1649735;86;21451;-64
2021/07/02 04:46:18;;;;;;;12.70;9.13;;;;;;;23.55;68.69;98630.02;1686994;84;21016;-64
2021/07/02 04:48:46;;;;;;;12.68;8.33;;;;;;;23.60;68.47;98630.32;1685602;84;21125;-64
2021/07/02 04:51:12;;;;;;;14.78;9.43;;;;;;;23.66;68.08;98625.68;1659445;86;20987;-64
2021/07/02 04:53:40;;;;;;;10.20;7.90;;;;;;;23.73;68.00;98623.20;1684754;84;21573;-64
2021/07/02 04:56:12;;;;;;;9.35;8.43;;;;;;;23.79;67.67;98625.98;1680577;84;21175;-64
2021/07/02 04:58:41;;;;;;;13.97;8.37;;;;;;;23.81;67.75;98623.17;1687801;83;21025;-64
2021/07/02 05:01:07;;;;;;;11.53;9.68;;;;;;;23.83;67.25;98627.81;1643854;86;21189;-64
2021/07/02 05:03:34;;;;;;;10.90;9.60;;;;;;;23.76;67.07;98635.64;1659903;86;20999;-64
2021/07/02 05:06:03;;;;;;;11.73;8.88;;;;;;;23.68;66.43;98640.45;1691730;84;21072;-64
2021/07/02 05:08:32;;;;;;;17.23;9.15;;;;;;;23.58;67.14;98650.39;1686044;84;21108;-63
2021/07/02 05:10:58;;;;;;;14.60;9.95;;;;;;;23.51;67.31;98648.05;1633015;86;21089;-63
2021/07/02 05:13:25;;;;;;;15.13;8.60;;;;;;;23.40;67.87;98654.17;1688131;83;21477;-63
2021/07/02 05:15:53;;;;;;;10.43;9.53;;;;;;;23.31;67.84;98662.14;1682944;83;21435;-63
2021/07/02 05:18:20;;;;;;;9.20;8.40;;;;;;;23.19;67.79;98662.59;1682077;83;21140;-65
2021/07/02 05:20:47;;;;;;;11.35;10.35;;;;;;;23.12;67.77;98664.26;1683917;83;21010;-66
2021/07/02 05:23:14;;;;;;;12.23;9.98;;;;;;;22.99;67.90;98669.52;1648601;86;21480;-65
2021/07/02 05:25:41;;;;;;;9.93;8.68;;;;;;;22.81;68.24;98670.13;1692643;83;21080;-66
2021/07/02 05:28:07;;;;;;;9.75;8.75;;;;;;;22.67;68.81;98664.08;1679754;84;21069;-65
2021/07/02 05:30:34;;;;;;;13.58;10.32;;;;;;;22.63;69.24;98668.86;1686940;83;21938;-65
2021/07/02 05:33:02;;;;;;;11.25;9.60;;;;;;;22.61;69.33;98668.19;1685898;83;21570;-65
2021/07/02 05:35:28;;;;;;;15.85;10.85;;;;;;;22.56;69.37;98664.38;1657511;86;21127;-65
2021/07/02 05:37:54;;;;;;;11.12;10.03;;;;;;;22.53;69.84;98666.84;1694868;84;21105;-65
2021/07/02 05:40:21;;;;;;;10.30;9.30;;;;;;;22.56;69.87;98662.56;1686364;84;21060;-65
2021/07/02 05:42:47;;;;;;;11.55;10.38;;;;;;;22.57;69.69;98659.41;1686189;84;21608;-65
2021/07/02 05:45:14;;;;;;;13.38;10.28;;;;;;;22.57;69.62;98666.87;1684855;84;20946;-65
2021/07/02 05:47:50;;;;;;;11.03;9.90;;;;;;;22.58;69.80;98666.38;1684077;84;21172;-65
2021/07/02 05:50:18;;;;;;;11.73;9.58;;;;;;;22.60;69.56;98662.55;1688834;84;21511;-65
2021/07/02 05:52:46;;;;;;;10.88;9.78;;;;;;;22.57;69.73;98659.41;1685892;85;21215;-65
2021/07/02 05:55:13;;;;;;;11.10;9.95;;;;;;;22.56;69.72;98668.36;1686561;83;21088;-65
2021/07/02 05:57:40;;;;;;;14.47;9.55;;;;;;;22.55;69.49;98662.22;1634009;86;21445;-65
2021/07/02 06:00:09;;;;;;;14.18;10.15;;;;;;;22.61;69.06;98659.41;1640210;86;21091;-65
2021/07/02 06:02:36;;;;;;;10.93;9.45;;;;;;;22.62;69.02;98660.58;1633639;86;21093;-65
2021/07/02 06:05:04;;;;;;;11.33;9.88;;;;;;;22.63;68.86;98666.70;1686221;84;21565;-65
2021/07/02 06:07:47;;;;;;;10.98;9.88;;;;;;;22.71;68.36;98668.57;1690150;83;21103;-66
2021/07/02 06:10:16;;;;;;;9.90;9.00;;;;;;;22.82;67.80;98659.02;1693933;83;21121;-66
2021/07/02 06:12:42;;;;;;;10.00;9.03;;;;;;;22.97;67.14;98657.44;1681027;83;21037;-66
2021/07/02 06:15:12;;;;;;;11.12;9.33;;;;;;;23.07;66.56;98670.05;1681285;83;21088;-66
2021/07/02 06:17:41;;;;;;;10.10;9.18;;;;;;;23.10;66.52;98668.40;1689597;83;20994;-66
2021/07/02 06:20:09;;;;;;;10.20;9.20;;;;;;;23.10;66.58;98669.73;1667038;83;22965;-66
2021/07/02 06:22:45;;;;;;;14.65;11.48;;;;;;;23.12;66.96;98668.23;1684283;83;21147;-66
2021/07/02 06:25:12;;;;;;;14.18;11.15;;;;;;;23.10;67.40;98669.73;1687191;83;20975;-67
2021/07/02 06:27:40;;;;;;;12.37;10.55;;;;;;;23.12;67.46;98672.22;1677732;85;21006;-66
2021/07/02 06:30:08;;;;;;;13.78;10.30;;;;;;;23.14;66.90;98673.72;1679301;84;21064;-67
2021/07/02 06:32:35;;;;;;;12.15;10.45;;;;;;;23.13;67.16;98677.86;1679076;85;21110;-66
2021/07/02 06:35:01;;;;;;;16.62;11.63;;;;;;;23.16;66.96;98684.17;1683631;84;20966;-65
2021/07/02 06:37:27;;;;;;;11.53;10.43;;;;;;;23.16;66.56;98676.21;1678925;84;21450;-66
2021/07/02 06:39:54;;;;;;;10.35;9.35;;;;;;;23.13;66.54;98675.20;1682548;83;21026;-66
2021/07/02 06:42:20;;;;;;;12.40;9.30;;;;;;;23.12;66.12;98674.37;1683578;84;21030;-64
2021/07/02 06:44:46;;;;;;;11.22;9.30;;;;;;;23.06;66.11;98675.51;1662074;83;23323;-64
2021/07/02 06:47:13;;;;;;;11.22;9.30;;;;;;;23.07;66.06;98665.23;1654404;86;20978;-66
2021/07/02 06:49:40;;;;;;;22.55;10.82;;;;;;;23.13;65.89;98658.80;1661108;84;20984;-62
2021/07/02 06:52:07;;;;;;;12.85;9.90;;;;;;;23.25;65.98;98653.50;1665840;83;21603;-65
2021/07/02 06:54:35;;;;;;;11.18;9.65;;;;;;;23.44;65.31;98650.20;1685589;83;21084;-64
2021/07/02 06:57:07;;;;;;;9.23;8.30;;;;;;;23.57;64.77;98650.59;1677377;83;21269;-66
2021/07/02 06:59:37;;;;;;;21.35;10.68;;;;;;;23.63;63.92;98658.70;1653614;85;21010;-65
2021/07/02 07:02:04;;;;;;;15.60;9.35;;;;;;;23.62;63.64;98657.03;1655014;85;21192;-65
2021/07/02 07:04:36;;;;;;;13.18;8.85;;;;;;;23.53;63.82;98663.36;1656754;85;21690;-66
2021/07/02 07:07:04;;;;;;;12.77;9.57;;;;;;;23.56;64.39;98667.51;1655540;86;21081;-66
2021/07/02 07:09:31;;;;;;;13.13;8.95;;;;;;;23.66;63.67;98672.14;1639610;86;21833;-68
2021/07/02 07:11:59;;;;;;;16.30;9.25;;;;;;;23.68;63.28;98663.02;1667451;84;21054;-67
2021/07/02 07:14:25;;;;;;;10.15;9.15;;;;;;;23.70;63.51;98666.34;1688436;84;21172;-66
2021/07/02 07:16:53;;;;;;;9.78;8.85;;;;;;;23.73;63.19;98675.80;1685526;84;20959;-66
2021/07/02 07:19:26;;;;;;;9.93;9.05;;;;;;;23.77;63.02;98676.30;1664876;84;20999;-67
2021/07/02 07:21:49;;;;;;;10.48;8.50;;;;;;;23.82;62.82;98674.78;1673278;84;21164;-65
2021/07/02 07:24:16;;;;;;;14.13;10.40;;;;;;;23.89;62.69;98661.19;1676083;85;21042;-66
2021/07/02 07:26:43;;;;;;;10.80;9.20;;;;;;;23.95;62.09;98664.50;1686337;83;21005;-64
2021/07/02 07:29:09;;;;;;;9.60;8.80;;;;;;;23.92;62.20;98659.52;1665665;84;21006;-64
2021/07/02 07:31:38;;;;;;;12.33;10.55;;;;;;;23.90;62.04;98657.53;1661601;85;21066;-63
2021/07/02 07:34:04;;;;;;;11.60;9.55;;;;;;;23.96;62.02;98658.20;1658135;84;21128;-64
2021/07/02 07:36:32;;;;;;;10.65;9.55;;;;;;;24.06;61.65;98658.00;1668695;84;21030;-65
2021/07/02 07:38:59;;;;;;;12.23;8.78;;;;;;;24.12;61.16;98656.00;1688877;84;21255;-64
2021/07/02 07:41:26;;;;;;;11.83;9.80;;;;;;;24.21;61.15;98667.42;1686038;84;21546;-66
2021/07/02 07:43:52;;;;;;;12.10;8.90;;;;;;;24.33;61.03;98674.92;1671790;83;21614;-64
2021/07/02 07:46:20;;;;;;;19.35;11.40;;;;;;;24.48;60.15;98675.54;1672970;84;21153;-64
2021/07/02 07:48:46;;;;;;;11.55;9.43;;;;;;;24.54;59.84;98666.39;1660998;86;20969;-66
2021/07/02 07:53:40;;;;;;;10.25;9.23;;;;;;;24.81;58.96;98672.24;1640993;86;21653;-67
2021/07/02 07:56:10;;;;;;;12.20;9.40;;;;;;;24.89;58.52;98666.39;1661538;84;21047;-64
2021/07/02 07:58:36;;;;;;;9.63;8.35;;;;;;;25.02;58.01;98664.02;1607303;87;21186;-64
2021/07/02 08:01:03;;;;;;;13.58;8.73;;;;;;;25.15;57.61;98671.45;1612767;87;20982;-63
2021/07/02 08:03:29;;;;;;;12.55;11.43;;;;;;;25.29;57.24;98668.53;1635639;87;21006;-66
2021/07/02 08:06:00;;;;;;;9.55;8.75;;;;;;;25.49;56.76;98667.05;1658677;84;21659;-66
2021/07/02 08:08:27;;;;;;;8.80;7.97;;;;;;;25.69;55.69;98670.09;1632618;85;21113;-65
2021/07/02 08:10:53;;;;;;;9.38;8.38;;;;;;;25.82;55.05;98672.14;1658164;84;21147;-67
2021/07/02 08:13:20;;;;;;;9.78;8.63;;;;;;;25.89;54.88;98669.09;1662853;84;20970;-68
2021/07/02 08:15:48;;;;;;;8.90;8.00;;;;;;;26.02;55.55;98673.28;1670854;84;21112;-65
2021/07/02 08:18:14;;;;;;;9.38;8.60;;;;;;;26.21;55.24;98670.59;1659162;85;21108;-67
2021/07/02 08:20:40;;;;;;;8.63;7.75;;;;;;;26.41;54.79;98677.08;1681738;83;20998;-67
2021/07/02 08:23:09;;;;;;;9.55;8.73;;;;;;;26.57;53.92;98675.59;1644009;86;21269;-65
2021/07/02 08:25:38;;;;;;;15.48;11.40;;;;;;;26.70;53.54;98677.09;1692349;84;21069;-65
2021/07/02 08:30:51;;;;;;;8.53;7.67;;;;;;;27.16;53.09;98674.69;1672392;84;21204;-65
2021/07/02 08:33:19;;;;;;;15.65;9.58;;;;;;;27.37;51.83;98685.40;1668067;84;21613;-66
2021/07/02 08:35:46;;;;;;;9.40;7.65;;;;;;;27.36;50.99;98685.08;1660413;84;21135;-65
2021/07/02 08:38:15;;;;;;;9.75;8.03;;;;;;;27.27;51.04;98689.70;1672387;84;21396;-66
2021/07/02 08:40:42;;;;;;;14.83;8.73;;;;;;;27.15;51.11;98685.88;1685763;84;21452;-66
2021/07/02 08:43:09;;;;;;;11.45;7.60;;;;;;;27.01;51.21;98683.55;1663885;84;21558;-66
2021/07/02 08:45:36;;;;;;;26.52;9.83;;;;;;;26.93;51.63;98688.14;1662636;85;21142;-66
2021/07/02 08:48:06;;;;;;;7.85;7.08;;;;;;;26.94;52.03;98685.33;1647793;85;21755;-66
2021/07/02 08:50:34;;;;;;;8.08;7.22;;;;;;;27.11;51.88;98673.92;1661544;85;20990;-65
2021/07/02 08:53:00;;;;;;;9.50;6.80;;;;;;;27.38;51.08;98679.02;1660189;84;21092;-65
2021/07/02 08:55:26;;;;;;;22.95;7.33;;;;;;;27.53;50.54;98677.64;1683863;84;21039;-65
2021/07/02 08:57:53;;;;;;;12.55;7.42;;;;;;;27.49;50.10;98679.86;1693578;84;21011;-65
2021/07/02 09:00:20;;;;;;;21.75;7.28;;;;;;;27.32;50.19;98683.80;1680042;84;21111;-65
2021/07/02 09:02:46;;;;;;;17.40;8.35;;;;;;;27.05;50.75;98682.67;1656635;84;21087;-66
2021/07/02 09:05:34;;;;;;;8.65;6.85;;;;;;;26.81;51.56;98678.95;1673496;84;21698;-66
2021/07/02 09:08:04;;;;;;;7.28;6.53;;;;;;;26.70;52.15;98677.59;1661421;86;21443;-66
2021/07/02 09:10:36;;;;;;;7.65;6.87;;;;;;;26.66;52.35;98673.63;1654753;84;21558;-65
2021/07/02 09:13:05;;;;;;;8.18;6.55;;;;;;;26.63;52.25;98672.66;1666347;84;20995;-66
2021/07/02 09:15:31;;;;;;;5.90;5.45;;;;;;;26.63;52.21;98662.00;1658150;85;21459;-65
2021/07/02 09:18:02;;;;;;;6.37;5.87;;;;;;;26.68;52.09;98656.94;1663780;84;21097;-64
2021/07/02 09:20:38;;;;;;;6.78;5.90;;;;;;;26.69;51.92;98658.59;1665579;84;21054;-65
2021/07/02 09:23:10;;;;;;;8.23;5.55;;;;;;;26.71;51.91;98653.91;1668146;84;21161;-65
2021/07/02 09:25:53;;;;;;;12.03;7.40;;;;;;;26.81;51.88;98654.94;1682360;84;21180;-65
2021/07/02 09:28:20;;;;;;;9.80;5.65;;;;;;;26.87;51.69;98654.20;1670418;84;21015;-66
2021/07/02 09:30:54;;;;;;;7.42;5.58;;;;;;;26.90;51.83;98654.66;1677447;84;21624;-64
2021/07/02 09:33:23;;;;;;;15.23;6.20;;;;;;;26.94;51.77;98649.77;1684077;84;21574;-65
2021/07/02 09:35:53;;;;;;;7.17;6.50;;;;;;;26.98;51.65;98642.55;1683540;84;20963;-65
2021/07/02 09:38:35;;;;;;;6.28;5.67;;;;;;;27.08;51.89;98642.26;1677949;84;21808;-65
2021/07/02 09:41:03;;;;;;;6.00;5.40;;;;;;;27.21;51.28;98642.39;1672906;84;21462;-65
2021/07/02 09:43:31;;;;;;;13.08;5.97;;;;;;;27.32;51.17;98633.06;1686783;83;21136;-65
2021/07/02 09:46:04;;;;;;;6.37;5.47;;;;;;;27.38;50.76;98622.42;1684926;83;21069;-65
2021/07/02 09:48:42;;;;;;;17.23;6.33;;;;;;;27.43;50.63;98625.36;1690578;83;21584;-65
2021/07/02 09:51:10;;;;;;;7.58;6.00;;;;;;;27.48;50.58;98624.79;1687932;84;21181;-65
2021/07/02 09:53:37;;;;;;;6.58;5.87;;;;;;;27.50;50.46;98621.42;1682135;84;21272;-65
2021/07/02 09:56:09;;;;;;;8.58;5.83;;;;;;;27.53;50.87;98619.70;1685293;83;21478;-65
2021/07/02 09:58:39;;;;;;;9.03;5.78;;;;;;;27.66;50.76;98617.17;1631378;86;21038;-65
2021/07/02 10:01:08;;;;;;;7.70;6.37;;;;;;;27.76;49.70;98611.00;1685220;84;21117;-65
2021/07/02 10:03:44;;;;;;;11.05;6.47;;;;;;;27.72;49.81;98614.24;1658888;85;21457;-64
2021/07/02 10:06:28;;;;;;;10.00;5.90;;;;;;;27.67;50.25;98611.31;1685386;84;22812;-65
2021/07/02 10:08:59;;;;;;;5.97;4.97;;;;;;;27.65;50.46;98611.51;1689333;83;21032;-65
2021/07/02 10:11:24;;;;;;;7.95;5.35;;;;;;;27.68;49.88;98602.28;1676350;84;21018;-65
2021/07/02 10:13:51;;;;;;;7.53;5.12;;;;;;;27.70;49.67;98605.08;1683171;84;21175;-65
2021/07/02 10:16:19;;;;;;;8.43;7.62;;;;;;;27.73;49.91;98606.04;1686334;83;21038;-66
2021/07/02 10:18:56;;;;;;;7.50;6.80;;;;;;;27.79;49.75;98607.08;1683127;84;20943;-65
2021/07/02 10:21:24;;;;;;;8.10;5.75;;;;;;;27.88;49.85;98607.77;1685608;84;21010;-65
2021/07/02 10:23:57;;;;;;;7.87;4.75;;;;;;;27.99;49.62;98607.22;1638274;86;21557;-65
2021/07/02 10:26:26;;;;;;;4.75;4.40;;;;;;;28.08;49.30;98612.75;1690623;83;21005;-65
2021/07/02 10:28:53;;;;;;;5.20;4.72;;;;;;;28.17;48.94;98616.93;1666839;83;21131;-65
2021/07/02 10:31:19;;;;;;;4.97;4.35;;;;;;;28.29;48.47;98619.90;1686096;83;20994;-65
2021/07/02 10:33:48;;;;;;;5.25;4.50;;;;;;;28.47;48.25;98610.84;1684240;83;21053;-64
2021/07/02 10:36:16;;;;;;;5.17;4.67;;;;;;;28.63;47.80;98613.67;1679225;83;20954;-65
2021/07/02 10:38:48;;;;;;;5.72;5.12;;;;;;;28.76;47.54;98611.08;1668664;84;21867;-66
2021/07/02 10:41:19;;;;;;;6.80;4.65;;;;;;;28.88;46.97;98609.48;1636121;85;21162;-66
2021/07/02 10:44:11;;;;;;;4.57;4.00;;;;;;;29.14;44.82;98622.95;1687271;83;21210;-65
2021/07/02 10:46:50;;;;;;;5.90;4.95;;;;;;;29.14;44.82;98622.95;1686859;83;21434;-66
2021/07/02 10:49:18;;;;;;;5.83;4.72;;;;;;;29.09;45.15;98622.72;1686248;84;21183;-65
2021/07/02 10:51:53;;;;;;;7.28;4.62;;;;;;;28.95;45.50;98622.90;1686914;84;21072;-67
2021/07/02 10:54:27;;;;;;;7.15;4.45;;;;;;;28.84;46.06;98614.92;1691776;84;21239;-66
2021/07/02 10:57:02;;;;;;;15.58;5.50;;;;;;;28.75;46.18;98616.11;1687366;83;21519;-66
2021/07/02 10:59:46;;;;;;;4.72;4.33;;;;;;;28.67;45.93;98626.46;1686226;83;21036;-65
2021/07/02 11:02:17;;;;;;;4.97;4.53;;;;;;;28.61;45.98;98619.73;1682043;82;20970;-65
2021/07/02 11:04:48;;;;;;;7.60;4.40;;;;;;;28.64;46.34;98622.84;1689174;83;21462;-65
2021/07/02 11:07:29;;;;;;;5.70;5.28;;;;;;;28.76;46.28;98617.25;1691633;83;21209;-65
2021/07/02 11:10:01;;;;;;;11.15;4.97;;;;;;;28.83;45.82;98615.13;1698667;83;21010;-65
2021/07/02 11:12:46;;;;;;;20.77;6.55;;;;;;;28.83;45.43;98616.46;1685320;83;21057;-65
2021/07/02 11:15:17;;;;;;;5.20;4.12;;;;;;;28.83;45.73;98608.43;1686698;83;20954;-66
2021/07/02 11:17:46;;;;;;;9.93;4.55;;;;;;;28.87;45.14;98606.49;1686752;83;20954;-65
2021/07/02 11:20:23;;;;;;;5.40;4.72;;;;;;;28.92;45.30;98607.23;1683694;84;21145;-65
2021/07/02 11:23:14;;;;;;;5.20;4.83;;;;;;;28.99;45.40;98608.88;1685324;83;20955;-64
2021/07/02 11:25:50;;;;;;;4.58;4.20;;;;;;;28.99;45.06;98613.41;1682632;83;21605;-66
2021/07/02 11:28:21;;;;;;;4.87;4.45;;;;;;;28.91;45.21;98604.25;1683751;83;21037;-66
2021/07/02 11:30:44;;;;;;;6.80;5.03;;;;;;;28.95;45.64;98603.65;1685295;84;21542;-65
2021/07/02 11:33:16;;;;;;;5.60;4.20;;;;;;;29.00;45.40;98605.19;1687478;83;21799;-65
2021/07/02 11:35:48;;;;;;;5.55;4.33;;;;;;;29.01;45.02;98607.34;1686645;84;21510;-65
2021/07/02 11:38:19;;;;;;;5.40;4.55;;;;;;;28.98;44.48;98599.20;1648786;86;21481;-66
2021/07/02 11:40:51;;;;;;;3.98;3.67;;;;;;;28.94;45.33;98601.17;1632988;86;21136;-65
2021/07/02 11:43:30;;;;;;;4.42;4.05;;;;;;;28.93;45.61;98600.86;1633048;86;21038;-66